sensor_id;sensor_type;location;lat;lon;timestamp;temperature;humidity
6672;DHT22;3372;48.690;12.362;2023-04-08T00:00:33;8.40;25.80
6672;DHT22;3372;48.690;12.362;2023-04-08T00:03:00;8.40;25.30
6672;DHT22;3372;48.690;12.362;2023-04-08T00:05:26;8.40;25.30
6672;DHT22;3372;48.690;12.362;2023-04-08T00:07:52;8.40;25.80
6672;DHT22;3372;48.690;12.362;2023-04-08T00:10:17;8.40;26.00
6672;DHT22;3372;48.690;12.362;2023-04-08T00:12:43;8.40;26.50
6672;DHT22;3372;48.690;12.362;2023-04-08T00:15:09;8.40;25.80
6672;DHT22;3372;48.690;12.362;2023-04-08T00:17:35;8.40;25.30
6672;DHT22;3372;48.690;12.362;2023-04-08T00:20:01;8.40;25.20
6672;DHT22;3372;48.690;12.362;2023-04-08T00:22:26;8.40;25.60
6672;DHT22;3372;48.690;12.362;2023-04-08T00:24:54;8.50;25.10
6672;DHT22;3372;48.690;12.362;2023-04-08T00:27:19;8.40;24.80
6672;DHT22;3372;48.690;12.362;2023-04-08T00:29:45;8.40;25.30
6672;DHT22;3372;48.690;12.362;2023-04-08T00:32:10;8.50;25.20
6672;DHT22;3372;48.690;12.362;2023-04-08T00:34:36;8.50;25.60
6672;DHT22;3372;48.690;12.362;2023-04-08T00:37:02;8.50;25.30
6672;DHT22;3372;48.690;12.362;2023-04-08T00:39:28;8.40;25.10
6672;DHT22;3372;48.690;12.362;2023-04-08T00:41:53;8.40;25.00
6672;DHT22;3372;48.690;12.362;2023-04-08T00:44:20;8.40;25.80
6672;DHT22;3372;48.690;12.362;2023-04-08T00:46:46;8.40;25.70
6672;DHT22;3372;48.690;12.362;2023-04-08T00:49:12;8.30;25.30
6672;DHT22;3372;48.690;12.362;2023-04-08T00:51:38;8.40;25.10
6672;DHT22;3372;48.690;12.362;2023-04-08T00:54:04;8.40;25.50
6672;DHT22;3372;48.690;12.362;2023-04-08T00:56:31;8.40;25.60
6672;DHT22;3372;48.690;12.362;2023-04-08T00:58:58;8.30;25.50
6672;DHT22;3372;48.690;12.362;2023-04-08T01:01:47;8.30;26.00
6672;DHT22;3372;48.690;12.362;2023-04-08T01:09:35;8.30;25.60
6672;DHT22;3372;48.690;12.362;2023-04-08T01:12:05;8.30;25.10
6672;DHT22;3372;48.690;12.362;2023-04-08T01:14:34;8.20;23.80
6672;DHT22;3372;48.690;12.362;2023-04-08T01:17:04;8.30;23.70
6672;DHT22;3372;48.690;12.362;2023-04-08T01:19:33;8.20;23.30
6672;DHT22;3372;48.690;12.362;2023-04-08T01:24:56;8.30;23.30
6672;DHT22;3372;48.690;12.362;2023-04-08T01:27:24;8.30;23.30
6672;DHT22;3372;48.690;12.362;2023-04-08T01:29:51;8.30;23.30
6672;DHT22;3372;48.690;12.362;2023-04-08T01:32:17;8.20;23.30
6672;DHT22;3372;48.690;12.362;2023-04-08T01:34:44;8.30;23.30
6672;DHT22;3372;48.690;12.362;2023-04-08T01:37:10;8.30;24.00
6672;DHT22;3372;48.690;12.362;2023-04-08T01:39:38;8.30;23.60
6672;DHT22;3372;48.690;12.362;2023-04-08T01:42:04;8.30;23.70
6672;DHT22;3372;48.690;12.362;2023-04-08T01:44:30;8.30;23.50
6672;DHT22;3372;48.690;12.362;2023-04-08T01:46:57;8.30;23.40
6672;DHT22;3372;48.690;12.362;2023-04-08T01:49:24;8.30;23.30
6672;DHT22;3372;48.690;12.362;2023-04-08T01:51:51;8.30;23.80
6672;DHT22;3372;48.690;12.362;2023-04-08T01:54:18;8.30;23.10
6672;DHT22;3372;48.690;12.362;2023-04-08T01:56:44;8.30;23.00
6672;DHT22;3372;48.690;12.362;2023-04-08T01:59:13;8.20;23.40
6672;DHT22;3372;48.690;12.362;2023-04-08T02:01:41;8.20;23.70
6672;DHT22;3372;48.690;12.362;2023-04-08T02:04:08;8.10;23.80
6672;DHT22;3372;48.690;12.362;2023-04-08T02:06:33;8.10;23.50
6672;DHT22;3372;48.690;12.362;2023-04-08T02:09:00;8.10;23.50
6672;DHT22;3372;48.690;12.362;2023-04-08T02:11:26;8.10;24.10
6672;DHT22;3372;48.690;12.362;2023-04-08T02:13:53;8.00;23.10
6672;DHT22;3372;48.690;12.362;2023-04-08T02:18:55;8.00;23.10
6672;DHT22;3372;48.690;12.362;2023-04-08T02:21:26;8.00;22.90
6672;DHT22;3372;48.690;12.362;2023-04-08T02:23:56;8.00;23.00
6672;DHT22;3372;48.690;12.362;2023-04-08T02:26:23;7.90;22.50
6672;DHT22;3372;48.690;12.362;2023-04-08T02:28:51;7.90;23.30
6672;DHT22;3372;48.690;12.362;2023-04-08T02:31:18;7.90;23.10
6672;DHT22;3372;48.690;12.362;2023-04-08T02:33:44;7.80;23.00
6672;DHT22;3372;48.690;12.362;2023-04-08T02:36:11;7.80;22.80
6672;DHT22;3372;48.690;12.362;2023-04-08T02:38:37;7.80;23.00
6672;DHT22;3372;48.690;12.362;2023-04-08T02:41:03;7.80;22.80
6672;DHT22;3372;48.690;12.362;2023-04-08T02:43:28;7.70;22.50
6672;DHT22;3372;48.690;12.362;2023-04-08T02:45:57;7.70;22.20
6672;DHT22;3372;48.690;12.362;2023-04-08T02:48:23;7.70;23.40
6672;DHT22;3372;48.690;12.362;2023-04-08T02:50:49;7.70;22.80
6672;DHT22;3372;48.690;12.362;2023-04-08T02:53:15;7.70;23.00
6672;DHT22;3372;48.690;12.362;2023-04-08T02:55:40;7.70;22.30
6672;DHT22;3372;48.690;12.362;2023-04-08T02:58:06;7.70;22.50
6672;DHT22;3372;48.690;12.362;2023-04-08T03:00:31;7.70;22.30
6672;DHT22;3372;48.690;12.362;2023-04-08T03:02:57;7.70;22.20
6672;DHT22;3372;48.690;12.362;2023-04-08T03:05:25;7.60;22.10
6672;DHT22;3372;48.690;12.362;2023-04-08T03:07:51;7.60;21.50
6672;DHT22;3372;48.690;12.362;2023-04-08T03:10:16;7.60;21.50
6672;DHT22;3372;48.690;12.362;2023-04-08T03:12:42;7.60;21.50
6672;DHT22;3372;48.690;12.362;2023-04-08T03:15:07;7.50;21.40
6672;DHT22;3372;48.690;12.362;2023-04-08T03:17:33;7.60;21.60
6672;DHT22;3372;48.690;12.362;2023-04-08T03:19:59;7.60;21.10
6672;DHT22;3372;48.690;12.362;2023-04-08T03:22:25;7.50;21.40
6672;DHT22;3372;48.690;12.362;2023-04-08T03:24:51;7.50;21.90
6672;DHT22;3372;48.690;12.362;2023-04-08T03:27:16;7.40;21.30
6672;DHT22;3372;48.690;12.362;2023-04-08T03:29:42;7.40;21.60
6672;DHT22;3372;48.690;12.362;2023-04-08T03:32:10;7.40;21.50
6672;DHT22;3372;48.690;12.362;2023-04-08T03:34:35;7.40;21.60
6672;DHT22;3372;48.690;12.362;2023-04-08T03:37:01;7.50;21.70
6672;DHT22;3372;48.690;12.362;2023-04-08T03:39:26;7.50;21.80
6672;DHT22;3372;48.690;12.362;2023-04-08T03:41:52;7.50;21.30
6672;DHT22;3372;48.690;12.362;2023-04-08T03:44:18;7.50;21.20
6672;DHT22;3372;48.690;12.362;2023-04-08T03:46:43;7.50;21.50
6672;DHT22;3372;48.690;12.362;2023-04-08T03:49:09;7.50;21.10
6672;DHT22;3372;48.690;12.362;2023-04-08T03:51:34;7.50;21.00
6672;DHT22;3372;48.690;12.362;2023-04-08T03:54:00;7.30;20.90
6672;DHT22;3372;48.690;12.362;2023-04-08T03:56:25;7.20;21.40
6672;DHT22;3372;48.690;12.362;2023-04-08T03:58:51;7.20;21.70
6672;DHT22;3372;48.690;12.362;2023-04-08T04:01:16;7.40;21.10
6672;DHT22;3372;48.690;12.362;2023-04-08T04:03:42;7.40;21.30
6672;DHT22;3372;48.690;12.362;2023-04-08T04:06:08;7.40;20.90
6672;DHT22;3372;48.690;12.362;2023-04-08T04:08:34;7.40;20.90
6672;DHT22;3372;48.690;12.362;2023-04-08T04:11:00;7.50;20.80
6672;DHT22;3372;48.690;12.362;2023-04-08T04:13:25;7.50;20.60
6672;DHT22;3372;48.690;12.362;2023-04-08T04:15:51;7.50;21.10
6672;DHT22;3372;48.690;12.362;2023-04-08T04:18:16;7.50;21.20
6672;DHT22;3372;48.690;12.362;2023-04-08T04:20:42;7.60;20.70
6672;DHT22;3372;48.690;12.362;2023-04-08T04:23:08;7.60;20.40
6672;DHT22;3372;48.690;12.362;2023-04-08T04:25:34;7.60;20.60
6672;DHT22;3372;48.690;12.362;2023-04-08T04:27:59;7.60;20.30
6672;DHT22;3372;48.690;12.362;2023-04-08T04:30:27;7.70;20.70
6672;DHT22;3372;48.690;12.362;2023-04-08T04:32:52;7.70;20.50
6672;DHT22;3372;48.690;12.362;2023-04-08T04:35:18;7.70;20.20
6672;DHT22;3372;48.690;12.362;2023-04-08T04:37:43;7.70;20.40
6672;DHT22;3372;48.690;12.362;2023-04-08T04:40:10;7.70;20.90
6672;DHT22;3372;48.690;12.362;2023-04-08T04:42:35;7.70;20.00
6672;DHT22;3372;48.690;12.362;2023-04-08T04:45:01;7.70;20.30
6672;DHT22;3372;48.690;12.362;2023-04-08T04:47:26;7.70;20.90
6672;DHT22;3372;48.690;12.362;2023-04-08T04:49:52;7.80;20.20
6672;DHT22;3372;48.690;12.362;2023-04-08T04:52:18;7.70;20.30
6672;DHT22;3372;48.690;12.362;2023-04-08T04:54:43;7.70;20.40
6672;DHT22;3372;48.690;12.362;2023-04-08T04:57:09;7.70;20.40
6672;DHT22;3372;48.690;12.362;2023-04-08T04:59:35;7.70;20.20
6672;DHT22;3372;48.690;12.362;2023-04-08T05:02:01;7.70;20.70
6672;DHT22;3372;48.690;12.362;2023-04-08T05:04:27;7.70;20.70
6672;DHT22;3372;48.690;12.362;2023-04-08T05:06:52;7.70;20.60
6672;DHT22;3372;48.690;12.362;2023-04-08T05:09:18;7.70;20.70
6672;DHT22;3372;48.690;12.362;2023-04-08T05:11:43;7.80;20.80
6672;DHT22;3372;48.690;12.362;2023-04-08T05:14:09;7.70;20.80
6672;DHT22;3372;48.690;12.362;2023-04-08T05:16:34;7.70;20.80
6672;DHT22;3372;48.690;12.362;2023-04-08T05:19:00;7.80;20.90
6672;DHT22;3372;48.690;12.362;2023-04-08T05:21:25;7.80;20.70
6672;DHT22;3372;48.690;12.362;2023-04-08T05:23:52;7.80;21.00
6672;DHT22;3372;48.690;12.362;2023-04-08T05:26:21;7.80;20.90
6672;DHT22;3372;48.690;12.362;2023-04-08T05:28:48;7.80;20.70
6672;DHT22;3372;48.690;12.362;2023-04-08T05:31:17;7.80;20.80
6672;DHT22;3372;48.690;12.362;2023-04-08T05:33:43;7.80;20.90
6672;DHT22;3372;48.690;12.362;2023-04-08T05:36:12;7.80;21.20
6672;DHT22;3372;48.690;12.362;2023-04-08T05:38:39;7.90;20.90
6672;DHT22;3372;48.690;12.362;2023-04-08T05:41:06;7.90;20.90
6672;DHT22;3372;48.690;12.362;2023-04-08T05:43:32;7.90;20.80
6672;DHT22;3372;48.690;12.362;2023-04-08T05:45:58;7.90;21.10
6672;DHT22;3372;48.690;12.362;2023-04-08T05:48:24;7.90;21.30
6672;DHT22;3372;48.690;12.362;2023-04-08T05:50:49;7.90;21.50
6672;DHT22;3372;48.690;12.362;2023-04-08T05:53:15;8.00;20.90
6672;DHT22;3372;48.690;12.362;2023-04-08T05:55:41;8.00;22.00
6672;DHT22;3372;48.690;12.362;2023-04-08T05:58:06;8.10;21.10
6672;DHT22;3372;48.690;12.362;2023-04-08T06:00:32;8.10;21.20
6672;DHT22;3372;48.690;12.362;2023-04-08T06:02:57;8.10;21.40
6672;DHT22;3372;48.690;12.362;2023-04-08T06:05:23;7.90;20.70
6672;DHT22;3372;48.690;12.362;2023-04-08T06:07:48;8.00;21.10
6672;DHT22;3372;48.690;12.362;2023-04-08T06:10:14;7.90;21.20
6672;DHT22;3372;48.690;12.362;2023-04-08T06:12:40;8.00;21.10
6672;DHT22;3372;48.690;12.362;2023-04-08T06:15:07;8.00;21.20
6672;DHT22;3372;48.690;12.362;2023-04-08T06:17:35;8.00;21.20
6672;DHT22;3372;48.690;12.362;2023-04-08T06:20:01;8.00;21.30
6672;DHT22;3372;48.690;12.362;2023-04-08T06:22:28;8.00;21.80
6672;DHT22;3372;48.690;12.362;2023-04-08T06:24:53;8.00;21.40
6672;DHT22;3372;48.690;12.362;2023-04-08T06:27:19;8.00;21.10
6672;DHT22;3372;48.690;12.362;2023-04-08T06:29:45;8.00;21.30
6672;DHT22;3372;48.690;12.362;2023-04-08T06:32:12;8.10;20.90
6672;DHT22;3372;48.690;12.362;2023-04-08T06:34:37;8.10;21.60
6672;DHT22;3372;48.690;12.362;2023-04-08T06:37:03;8.10;21.20
6672;DHT22;3372;48.690;12.362;2023-04-08T06:39:28;8.10;20.90
6672;DHT22;3372;48.690;12.362;2023-04-08T06:41:54;8.20;21.40
6672;DHT22;3372;48.690;12.362;2023-04-08T06:44:20;8.20;21.50
6672;DHT22;3372;48.690;12.362;2023-04-08T06:46:45;8.20;21.60
6672;DHT22;3372;48.690;12.362;2023-04-08T06:49:11;8.20;21.50
6672;DHT22;3372;48.690;12.362;2023-04-08T06:51:37;8.10;22.00
6672;DHT22;3372;48.690;12.362;2023-04-08T06:54:03;8.20;21.80
6672;DHT22;3372;48.690;12.362;2023-04-08T06:56:28;8.20;22.40
6672;DHT22;3372;48.690;12.362;2023-04-08T06:58:54;8.20;21.70
6672;DHT22;3372;48.690;12.362;2023-04-08T07:01:19;8.00;22.90
6672;DHT22;3372;48.690;12.362;2023-04-08T07:03:45;8.10;23.20
6672;DHT22;3372;48.690;12.362;2023-04-08T07:06:10;8.00;23.60
6672;DHT22;3372;48.690;12.362;2023-04-08T07:08:36;8.10;24.70
6672;DHT22;3372;48.690;12.362;2023-04-08T07:11:02;7.80;25.40
6672;DHT22;3372;48.690;12.362;2023-04-08T07:13:27;7.70;26.90
6672;DHT22;3372;48.690;12.362;2023-04-08T07:15:53;7.80;26.90
6672;DHT22;3372;48.690;12.362;2023-04-08T07:18:19;7.80;27.50
6672;DHT22;3372;48.690;12.362;2023-04-08T07:20:50;7.70;29.30
6672;DHT22;3372;48.690;12.362;2023-04-08T07:23:15;7.80;29.90
6672;DHT22;3372;48.690;12.362;2023-04-08T07:25:41;7.90;29.40
6672;DHT22;3372;48.690;12.362;2023-04-08T07:28:07;7.90;30.20
6672;DHT22;3372;48.690;12.362;2023-04-08T07:30:32;7.90;29.50
6672;DHT22;3372;48.690;12.362;2023-04-08T07:32:58;7.80;30.70
6672;DHT22;3372;48.690;12.362;2023-04-08T07:35:23;7.90;33.40
6672;DHT22;3372;48.690;12.362;2023-04-08T07:37:50;7.90;32.20
6672;DHT22;3372;48.690;12.362;2023-04-08T07:40:17;7.90;32.10
6672;DHT22;3372;48.690;12.362;2023-04-08T07:42:42;7.70;32.30
6672;DHT22;3372;48.690;12.362;2023-04-08T07:45:08;7.70;32.60
6672;DHT22;3372;48.690;12.362;2023-04-08T07:47:34;7.70;33.40
6672;DHT22;3372;48.690;12.362;2023-04-08T07:50:01;7.70;33.80
6672;DHT22;3372;48.690;12.362;2023-04-08T07:52:26;7.70;33.40
6672;DHT22;3372;48.690;12.362;2023-04-08T07:54:54;7.60;34.20
6672;DHT22;3372;48.690;12.362;2023-04-08T07:57:22;7.60;34.90
6672;DHT22;3372;48.690;12.362;2023-04-08T07:59:48;7.50;34.70
6672;DHT22;3372;48.690;12.362;2023-04-08T08:02:13;7.40;35.40
6672;DHT22;3372;48.690;12.362;2023-04-08T08:04:39;7.40;33.90
6672;DHT22;3372;48.690;12.362;2023-04-08T08:07:04;7.40;35.70
6672;DHT22;3372;48.690;12.362;2023-04-08T08:09:30;7.40;35.20
6672;DHT22;3372;48.690;12.362;2023-04-08T08:11:55;7.30;36.30
6672;DHT22;3372;48.690;12.362;2023-04-08T08:14:21;7.30;35.80
6672;DHT22;3372;48.690;12.362;2023-04-08T08:16:46;7.10;36.50
6672;DHT22;3372;48.690;12.362;2023-04-08T08:19:13;7.30;36.90
6672;DHT22;3372;48.690;12.362;2023-04-08T08:21:39;7.30;37.00
6672;DHT22;3372;48.690;12.362;2023-04-08T08:24:04;7.40;38.00
6672;DHT22;3372;48.690;12.362;2023-04-08T08:26:30;7.00;38.80
6672;DHT22;3372;48.690;12.362;2023-04-08T08:28:56;7.10;39.90
6672;DHT22;3372;48.690;12.362;2023-04-08T08:31:21;7.20;38.90
6672;DHT22;3372;48.690;12.362;2023-04-08T08:33:47;7.20;39.20
6672;DHT22;3372;48.690;12.362;2023-04-08T08:36:12;7.30;40.00
6672;DHT22;3372;48.690;12.362;2023-04-08T08:38:38;7.30;40.30
6672;DHT22;3372;48.690;12.362;2023-04-08T08:41:07;7.30;39.50
6672;DHT22;3372;48.690;12.362;2023-04-08T08:43:32;7.30;39.40
6672;DHT22;3372;48.690;12.362;2023-04-08T08:45:59;7.40;39.40
6672;DHT22;3372;48.690;12.362;2023-04-08T08:48:25;7.40;38.70
6672;DHT22;3372;48.690;12.362;2023-04-08T08:50:50;7.50;38.50
6672;DHT22;3372;48.690;12.362;2023-04-08T08:53:16;7.50;39.60
6672;DHT22;3372;48.690;12.362;2023-04-08T08:55:42;7.60;39.70
6672;DHT22;3372;48.690;12.362;2023-04-08T08:58:08;7.60;39.60
6672;DHT22;3372;48.690;12.362;2023-04-08T09:00:35;7.70;40.00
6672;DHT22;3372;48.690;12.362;2023-04-08T09:03:26;7.60;39.60
6672;DHT22;3372;48.690;12.362;2023-04-08T09:05:59;7.50;40.50
6672;DHT22;3372;48.690;12.362;2023-04-08T09:08:33;7.40;40.90
6672;DHT22;3372;48.690;12.362;2023-04-08T09:11:13;7.30;41.20
6672;DHT22;3372;48.690;12.362;2023-04-08T09:13:39;7.40;41.30
6672;DHT22;3372;48.690;12.362;2023-04-08T09:16:09;7.40;41.80
6672;DHT22;3372;48.690;12.362;2023-04-08T09:18:36;7.50;41.90
6672;DHT22;3372;48.690;12.362;2023-04-08T09:21:05;7.60;41.90
6672;DHT22;3372;48.690;12.362;2023-04-08T09:26:08;7.30;44.50
6672;DHT22;3372;48.690;12.362;2023-04-08T09:28:35;7.40;43.50
6672;DHT22;3372;48.690;12.362;2023-04-08T09:31:21;7.50;42.50
6672;DHT22;3372;48.690;12.362;2023-04-08T09:33:48;7.30;44.20
6672;DHT22;3372;48.690;12.362;2023-04-08T09:36:15;7.10;45.10
6672;DHT22;3372;48.690;12.362;2023-04-08T09:38:42;7.40;45.70
6672;DHT22;3372;48.690;12.362;2023-04-08T09:41:07;7.50;45.10
6672;DHT22;3372;48.690;12.362;2023-04-08T09:43:47;7.40;44.80
6672;DHT22;3372;48.690;12.362;2023-04-08T09:46:15;7.50;46.30
6672;DHT22;3372;48.690;12.362;2023-04-08T09:49:05;7.30;46.20
6672;DHT22;3372;48.690;12.362;2023-04-08T09:54:14;7.60;45.20
6672;DHT22;3372;48.690;12.362;2023-04-08T09:56:55;7.70;43.70
6672;DHT22;3372;48.690;12.362;2023-04-08T09:59:26;7.60;44.10
6672;DHT22;3372;48.690;12.362;2023-04-08T10:01:56;7.70;44.60
6672;DHT22;3372;48.690;12.362;2023-04-08T10:04:23;7.80;44.30
6672;DHT22;3372;48.690;12.362;2023-04-08T10:06:56;7.90;44.30
6672;DHT22;3372;48.690;12.362;2023-04-08T10:09:23;7.90;43.80
6672;DHT22;3372;48.690;12.362;2023-04-08T10:11:49;8.00;43.10
6672;DHT22;3372;48.690;12.362;2023-04-08T10:14:15;8.00;43.10
6672;DHT22;3372;48.690;12.362;2023-04-08T10:16:41;8.20;42.20
6672;DHT22;3372;48.690;12.362;2023-04-08T10:19:36;8.20;42.60
6672;DHT22;3372;48.690;12.362;2023-04-08T10:27:44;8.10;43.50
6672;DHT22;3372;48.690;12.362;2023-04-08T10:32:56;8.10;43.20
6672;DHT22;3372;48.690;12.362;2023-04-08T10:35:31;8.10;41.70
6672;DHT22;3372;48.690;12.362;2023-04-08T10:37:57;7.70;43.10
6672;DHT22;3372;48.690;12.362;2023-04-08T10:40:24;7.80;43.50
6672;DHT22;3372;48.690;12.362;2023-04-08T10:42:57;7.90;42.70
6672;DHT22;3372;48.690;12.362;2023-04-08T10:45:23;7.90;43.10
6672;DHT22;3372;48.690;12.362;2023-04-08T10:47:48;7.90;43.10
6672;DHT22;3372;48.690;12.362;2023-04-08T10:50:15;7.90;43.50
6672;DHT22;3372;48.690;12.362;2023-04-08T10:52:52;7.90;43.70
6672;DHT22;3372;48.690;12.362;2023-04-08T10:55:22;8.00;43.60
6672;DHT22;3372;48.690;12.362;2023-04-08T10:57:49;8.00;43.50
6672;DHT22;3372;48.690;12.362;2023-04-08T11:00:30;8.00;44.30
6672;DHT22;3372;48.690;12.362;2023-04-08T11:03:06;8.10;43.30
6672;DHT22;3372;48.690;12.362;2023-04-08T11:05:33;8.20;43.80
6672;DHT22;3372;48.690;12.362;2023-04-08T11:07:59;8.00;43.60
6672;DHT22;3372;48.690;12.362;2023-04-08T11:10:25;8.10;44.50
6672;DHT22;3372;48.690;12.362;2023-04-08T11:12:53;8.20;44.50
6672;DHT22;3372;48.690;12.362;2023-04-08T11:15:19;8.30;43.40
6672;DHT22;3372;48.690;12.362;2023-04-08T11:17:46;8.20;42.80
6672;DHT22;3372;48.690;12.362;2023-04-08T11:20:13;8.30;43.60
6672;DHT22;3372;48.690;12.362;2023-04-08T11:22:39;8.30;43.50
6672;DHT22;3372;48.690;12.362;2023-04-08T11:25:07;8.30;43.40
6672;DHT22;3372;48.690;12.362;2023-04-08T11:27:34;8.30;43.60
6672;DHT22;3372;48.690;12.362;2023-04-08T11:30:01;8.40;44.50
6672;DHT22;3372;48.690;12.362;2023-04-08T11:32:27;8.50;43.10
6672;DHT22;3372;48.690;12.362;2023-04-08T11:34:53;8.50;44.20
6672;DHT22;3372;48.690;12.362;2023-04-08T11:37:19;8.40;44.00
6672;DHT22;3372;48.690;12.362;2023-04-08T11:39:45;8.50;43.60
6672;DHT22;3372;48.690;12.362;2023-04-08T11:42:30;8.60;43.30
6672;DHT22;3372;48.690;12.362;2023-04-08T11:44:56;8.30;45.00
6672;DHT22;3372;48.690;12.362;2023-04-08T11:47:32;8.40;44.30
6672;DHT22;3372;48.690;12.362;2023-04-08T11:49:58;8.50;44.50
6672;DHT22;3372;48.690;12.362;2023-04-08T11:52:45;8.50;43.20
6672;DHT22;3372;48.690;12.362;2023-04-08T11:55:20;8.30;44.70
6672;DHT22;3372;48.690;12.362;2023-04-08T11:57:46;8.40;44.30
6672;DHT22;3372;48.690;12.362;2023-04-08T12:00:12;8.50;44.00
6672;DHT22;3372;48.690;12.362;2023-04-08T12:02:38;8.50;44.00
6672;DHT22;3372;48.690;12.362;2023-04-08T12:05:05;8.40;45.60
6672;DHT22;3372;48.690;12.362;2023-04-08T12:07:31;8.50;45.90
6672;DHT22;3372;48.690;12.362;2023-04-08T12:09:56;8.60;44.00
6672;DHT22;3372;48.690;12.362;2023-04-08T12:12:22;8.60;44.70
6672;DHT22;3372;48.690;12.362;2023-04-08T12:14:48;8.70;43.20
6672;DHT22;3372;48.690;12.362;2023-04-08T12:17:13;8.60;43.30
6672;DHT22;3372;48.690;12.362;2023-04-08T12:19:39;8.60;44.90
6672;DHT22;3372;48.690;12.362;2023-04-08T12:22:05;8.50;44.10
6672;DHT22;3372;48.690;12.362;2023-04-08T12:24:31;8.60;44.70
6672;DHT22;3372;48.690;12.362;2023-04-08T12:26:56;8.70;43.80
6672;DHT22;3372;48.690;12.362;2023-04-08T12:29:22;8.50;43.60
6672;DHT22;3372;48.690;12.362;2023-04-08T12:31:48;8.50;43.80
6672;DHT22;3372;48.690;12.362;2023-04-08T12:34:13;8.60;43.70
6672;DHT22;3372;48.690;12.362;2023-04-08T12:36:39;8.60;43.70
6672;DHT22;3372;48.690;12.362;2023-04-08T12:39:05;8.70;43.00
6672;DHT22;3372;48.690;12.362;2023-04-08T12:41:31;8.60;43.20
6672;DHT22;3372;48.690;12.362;2023-04-08T12:43:57;8.60;42.30
6672;DHT22;3372;48.690;12.362;2023-04-08T12:46:23;8.30;42.90
6672;DHT22;3372;48.690;12.362;2023-04-08T12:48:48;8.30;43.60
6672;DHT22;3372;48.690;12.362;2023-04-08T12:51:14;8.20;44.00
6672;DHT22;3372;48.690;12.362;2023-04-08T12:53:39;8.40;43.50
6672;DHT22;3372;48.690;12.362;2023-04-08T12:56:05;8.30;45.10
6672;DHT22;3372;48.690;12.362;2023-04-08T12:58:31;8.30;44.10
6672;DHT22;3372;48.690;12.362;2023-04-08T13:00:56;8.50;43.50
6672;DHT22;3372;48.690;12.362;2023-04-08T13:03:22;8.60;43.30
6672;DHT22;3372;48.690;12.362;2023-04-08T13:05:47;8.40;42.40
6672;DHT22;3372;48.690;12.362;2023-04-08T13:08:13;8.40;43.50
6672;DHT22;3372;48.690;12.362;2023-04-08T13:10:41;8.50;43.20
6672;DHT22;3372;48.690;12.362;2023-04-08T13:13:06;8.60;42.70
6672;DHT22;3372;48.690;12.362;2023-04-08T13:15:32;8.40;42.60
6672;DHT22;3372;48.690;12.362;2023-04-08T13:17:58;8.60;43.00
6672;DHT22;3372;48.690;12.362;2023-04-08T13:20:24;8.50;43.50
6672;DHT22;3372;48.690;12.362;2023-04-08T13:22:51;8.60;43.40
6672;DHT22;3372;48.690;12.362;2023-04-08T13:25:17;8.50;42.80
6672;DHT22;3372;48.690;12.362;2023-04-08T13:27:42;8.20;44.20
6672;DHT22;3372;48.690;12.362;2023-04-08T13:30:09;8.40;44.50
6672;DHT22;3372;48.690;12.362;2023-04-08T13:32:34;8.50;43.20
6672;DHT22;3372;48.690;12.362;2023-04-08T13:35:01;8.50;42.70
6672;DHT22;3372;48.690;12.362;2023-04-08T13:37:26;8.70;43.60
6672;DHT22;3372;48.690;12.362;2023-04-08T13:39:52;8.70;42.80
6672;DHT22;3372;48.690;12.362;2023-04-08T13:42:18;8.50;44.20
6672;DHT22;3372;48.690;12.362;2023-04-08T13:44:44;8.60;43.80
6672;DHT22;3372;48.690;12.362;2023-04-08T13:47:09;8.60;44.20
6672;DHT22;3372;48.690;12.362;2023-04-08T13:49:35;8.70;43.40
6672;DHT22;3372;48.690;12.362;2023-04-08T13:52:01;8.80;42.90
6672;DHT22;3372;48.690;12.362;2023-04-08T13:54:26;8.80;42.90
6672;DHT22;3372;48.690;12.362;2023-04-08T13:56:52;8.80;43.90
6672;DHT22;3372;48.690;12.362;2023-04-08T13:59:17;8.90;43.20
6672;DHT22;3372;48.690;12.362;2023-04-08T14:01:43;8.80;42.50
6672;DHT22;3372;48.690;12.362;2023-04-08T14:04:09;8.60;43.70
6672;DHT22;3372;48.690;12.362;2023-04-08T14:06:34;8.70;43.40
6672;DHT22;3372;48.690;12.362;2023-04-08T14:09:00;8.60;44.00
6672;DHT22;3372;48.690;12.362;2023-04-08T14:11:26;8.80;43.30
6672;DHT22;3372;48.690;12.362;2023-04-08T14:13:51;8.80;42.60
6672;DHT22;3372;48.690;12.362;2023-04-08T14:16:17;8.70;43.30
6672;DHT22;3372;48.690;12.362;2023-04-08T14:18:42;8.50;42.70
6672;DHT22;3372;48.690;12.362;2023-04-08T14:21:08;8.60;43.30
6672;DHT22;3372;48.690;12.362;2023-04-08T14:23:34;8.70;42.60
6672;DHT22;3372;48.690;12.362;2023-04-08T14:25:59;8.70;41.70
6672;DHT22;3372;48.690;12.362;2023-04-08T14:28:25;8.70;43.10
6672;DHT22;3372;48.690;12.362;2023-04-08T14:30:51;8.60;42.60
6672;DHT22;3372;48.690;12.362;2023-04-08T14:33:16;8.70;42.70
6672;DHT22;3372;48.690;12.362;2023-04-08T14:35:42;8.70;41.70
6672;DHT22;3372;48.690;12.362;2023-04-08T14:38:08;8.70;41.70
6672;DHT22;3372;48.690;12.362;2023-04-08T14:40:33;8.80;42.00
6672;DHT22;3372;48.690;12.362;2023-04-08T14:42:59;8.70;41.50
6672;DHT22;3372;48.690;12.362;2023-04-08T14:45:25;8.80;41.10
6672;DHT22;3372;48.690;12.362;2023-04-08T14:47:51;8.80;41.80
6672;DHT22;3372;48.690;12.362;2023-04-08T14:50:16;8.80;41.30
6672;DHT22;3372;48.690;12.362;2023-04-08T14:52:43;8.80;41.60
6672;DHT22;3372;48.690;12.362;2023-04-08T14:55:09;8.80;40.50
6672;DHT22;3372;48.690;12.362;2023-04-08T14:57:35;8.80;41.00
6672;DHT22;3372;48.690;12.362;2023-04-08T15:00:00;8.80;41.40
6672;DHT22;3372;48.690;12.362;2023-04-08T15:02:26;8.60;41.70
6672;DHT22;3372;48.690;12.362;2023-04-08T15:04:51;8.70;41.70
6672;DHT22;3372;48.690;12.362;2023-04-08T15:07:17;8.80;41.40
6672;DHT22;3372;48.690;12.362;2023-04-08T15:09:42;8.80;41.60
6672;DHT22;3372;48.690;12.362;2023-04-08T15:12:08;8.70;41.90
6672;DHT22;3372;48.690;12.362;2023-04-08T15:14:34;8.90;41.10
6672;DHT22;3372;48.690;12.362;2023-04-08T15:16:59;8.80;41.00
6672;DHT22;3372;48.690;12.362;2023-04-08T15:19:25;8.70;41.20
6672;DHT22;3372;48.690;12.362;2023-04-08T15:21:50;8.70;41.10
6672;DHT22;3372;48.690;12.362;2023-04-08T15:24:16;8.60;41.50
6672;DHT22;3372;48.690;12.362;2023-04-08T15:26:43;8.80;41.30
6672;DHT22;3372;48.690;12.362;2023-04-08T15:29:09;8.90;40.60
6672;DHT22;3372;48.690;12.362;2023-04-08T15:31:34;8.70;40.40
6672;DHT22;3372;48.690;12.362;2023-04-08T15:34:00;8.70;40.00
6672;DHT22;3372;48.690;12.362;2023-04-08T15:36:28;8.70;40.50
6672;DHT22;3372;48.690;12.362;2023-04-08T15:38:53;8.50;41.10
6672;DHT22;3372;48.690;12.362;2023-04-08T15:41:19;8.60;40.30
6672;DHT22;3372;48.690;12.362;2023-04-08T15:43:46;8.70;41.20
6672;DHT22;3372;48.690;12.362;2023-04-08T15:46:17;8.80;40.60
6672;DHT22;3372;48.690;12.362;2023-04-08T15:48:42;8.90;40.80
6672;DHT22;3372;48.690;12.362;2023-04-08T15:51:08;9.00;40.80
6672;DHT22;3372;48.690;12.362;2023-04-08T15:53:35;8.80;41.30
6672;DHT22;3372;48.690;12.362;2023-04-08T15:56:01;8.90;41.10
6672;DHT22;3372;48.690;12.362;2023-04-08T15:58:28;8.90;40.70
6672;DHT22;3372;48.690;12.362;2023-04-08T16:00:53;8.90;40.80
6672;DHT22;3372;48.690;12.362;2023-04-08T16:03:20;9.00;40.00
6672;DHT22;3372;48.690;12.362;2023-04-08T16:05:45;9.00;40.10
6672;DHT22;3372;48.690;12.362;2023-04-08T16:08:11;8.80;39.10
6672;DHT22;3372;48.690;12.362;2023-04-08T16:10:36;8.90;39.60
6672;DHT22;3372;48.690;12.362;2023-04-08T16:13:02;9.00;38.70
6672;DHT22;3372;48.690;12.362;2023-04-08T16:15:27;8.90;38.40
6672;DHT22;3372;48.690;12.362;2023-04-08T16:17:53;9.00;38.80
6672;DHT22;3372;48.690;12.362;2023-04-08T16:20:19;9.10;38.90
6672;DHT22;3372;48.690;12.362;2023-04-08T16:22:45;8.80;38.90